sensor_id;sensor_type;location;lat;lon;timestamp;temperature;humidity
34873;DHT22;21084;51.098;14.506;2023-01-24T00:01:17;0.80;99.90
34873;DHT22;21084;51.098;14.506;2023-01-24T00:03:46;0.80;99.90
34873;DHT22;21084;51.098;14.506;2023-01-24T00:06:15;0.80;99.90
34873;DHT22;21084;51.098;14.506;2023-01-24T00:08:43;0.80;99.90
34873;DHT22;21084;51.098;14.506;2023-01-24T00:11:13;0.80;99.90
34873;DHT22;21084;51.098;14.506;2023-01-24T00:13:41;0.80;99.90
34873;DHT22;21084;51.098;14.506;2023-01-24T00:16:13;0.80;99.90
34873;DHT22;21084;51.098;14.506;2023-01-24T00:18:42;0.80;99.90
34873;DHT22;21084;51.098;14.506;2023-01-24T00:21:12;0.80;99.90
34873;DHT22;21084;51.098;14.506;2023-01-24T00:23:42;0.80;99.90
34873;DHT22;21084;51.098;14.506;2023-01-24T00:26:11;0.80;99.90
34873;DHT22;21084;51.098;14.506;2023-01-24T00:28:40;0.80;99.90
34873;DHT22;21084;51.098;14.506;2023-01-24T00:31:10;0.80;99.90
34873;DHT22;21084;51.098;14.506;2023-01-24T00:33:39;0.80;99.90
34873;DHT22;21084;51.098;14.506;2023-01-24T00:36:09;0.80;99.90
34873;DHT22;21084;51.098;14.506;2023-01-24T00:38:38;0.80;99.90
34873;DHT22;21084;51.098;14.506;2023-01-24T00:41:06;0.80;99.90
34873;DHT22;21084;51.098;14.506;2023-01-24T00:43:35;0.80;99.90
34873;DHT22;21084;51.098;14.506;2023-01-24T00:46:05;0.80;99.90
34873;DHT22;21084;51.098;14.506;2023-01-24T00:48:35;0.80;99.90
34873;DHT22;21084;51.098;14.506;2023-01-24T00:51:04;0.80;99.90
34873;DHT22;21084;51.098;14.506;2023-01-24T00:53:33;0.80;99.90
34873;DHT22;21084;51.098;14.506;2023-01-24T00:56:02;0.80;99.90
34873;DHT22;21084;51.098;14.506;2023-01-24T00:58:31;0.90;99.90
34873;DHT22;21084;51.098;14.506;2023-01-24T01:01:00;0.80;99.90
34873;DHT22;21084;51.098;14.506;2023-01-24T01:03:30;0.90;99.90
34873;DHT22;21084;51.098;14.506;2023-01-24T01:06:01;0.90;99.90
34873;DHT22;21084;51.098;14.506;2023-01-24T01:08:30;0.90;99.90
34873;DHT22;21084;51.098;14.506;2023-01-24T01:10:59;0.80;99.90
34873;DHT22;21084;51.098;14.506;2023-01-24T01:13:28;0.80;99.90
34873;DHT22;21084;51.098;14.506;2023-01-24T01:16:04;0.80;99.90
34873;DHT22;21084;51.098;14.506;2023-01-24T01:18:34;0.80;99.90
34873;DHT22;21084;51.098;14.506;2023-01-24T01:21:04;0.80;99.90
34873;DHT22;21084;51.098;14.506;2023-01-24T01:23:33;0.80;99.90
34873;DHT22;21084;51.098;14.506;2023-01-24T01:26:03;0.80;99.90
34873;DHT22;21084;51.098;14.506;2023-01-24T01:28:32;0.70;99.90
34873;DHT22;21084;51.098;14.506;2023-01-24T01:31:00;0.80;99.90
34873;DHT22;21084;51.098;14.506;2023-01-24T01:33:29;0.80;99.90
34873;DHT22;21084;51.098;14.506;2023-01-24T01:35:58;0.80;99.90
34873;DHT22;21084;51.098;14.506;2023-01-24T01:38:28;0.80;99.90
34873;DHT22;21084;51.098;14.506;2023-01-24T01:40:56;0.80;99.90
34873;DHT22;21084;51.098;14.506;2023-01-24T01:43:27;0.80;99.90
34873;DHT22;21084;51.098;14.506;2023-01-24T01:45:58;0.80;99.90
34873;DHT22;21084;51.098;14.506;2023-01-24T01:48:34;0.70;99.90
34873;DHT22;21084;51.098;14.506;2023-01-24T01:51:09;0.70;99.90
34873;DHT22;21084;51.098;14.506;2023-01-24T01:53:44;0.80;99.90
34873;DHT22;21084;51.098;14.506;2023-01-24T01:56:20;0.70;99.90
34873;DHT22;21084;51.098;14.506;2023-01-24T01:58:50;0.80;99.90
34873;DHT22;21084;51.098;14.506;2023-01-24T02:01:19;0.80;99.90
34873;DHT22;21084;51.098;14.506;2023-01-24T02:03:51;0.80;99.90
34873;DHT22;21084;51.098;14.506;2023-01-24T02:06:33;0.80;99.90
34873;DHT22;21084;51.098;14.506;2023-01-24T02:09:08;0.80;99.90
34873;DHT22;21084;51.098;14.506;2023-01-24T02:11:38;0.70;99.90
34873;DHT22;21084;51.098;14.506;2023-01-24T02:14:10;0.70;99.90
34873;DHT22;21084;51.098;14.506;2023-01-24T02:16:57;0.80;99.90
34873;DHT22;21084;51.098;14.506;2023-01-24T02:19:56;0.80;99.90
34873;DHT22;21084;51.098;14.506;2023-01-24T02:22:35;0.70;99.90
34873;DHT22;21084;51.098;14.506;2023-01-24T02:25:14;0.80;99.90
34873;DHT22;21084;51.098;14.506;2023-01-24T02:27:46;0.80;99.90
34873;DHT22;21084;51.098;14.506;2023-01-24T02:30:15;0.70;99.90
34873;DHT22;21084;51.098;14.506;2023-01-24T02:32:43;0.80;99.90
34873;DHT22;21084;51.098;14.506;2023-01-24T02:35:26;0.70;99.90
34873;DHT22;21084;51.098;14.506;2023-01-24T02:37:57;0.70;99.90
34873;DHT22;21084;51.098;14.506;2023-01-24T02:40:29;0.70;99.90
34873;DHT22;21084;51.098;14.506;2023-01-24T02:43:02;0.70;99.90
34873;DHT22;21084;51.098;14.506;2023-01-24T02:45:34;0.70;99.90
34873;DHT22;21084;51.098;14.506;2023-01-24T02:48:03;0.70;99.90
34873;DHT22;21084;51.098;14.506;2023-01-24T02:50:32;0.70;99.90
34873;DHT22;21084;51.098;14.506;2023-01-24T02:53:21;0.80;99.90
34873;DHT22;21084;51.098;14.506;2023-01-24T02:56:01;0.80;99.90
34873;DHT22;21084;51.098;14.506;2023-01-24T02:58:48;0.80;99.90
34873;DHT22;21084;51.098;14.506;2023-01-24T03:01:17;0.80;99.90
34873;DHT22;21084;51.098;14.506;2023-01-24T03:03:48;0.80;99.90
34873;DHT22;21084;51.098;14.506;2023-01-24T03:06:18;0.80;99.90
34873;DHT22;21084;51.098;14.506;2023-01-24T03:08:46;0.80;99.90
34873;DHT22;21084;51.098;14.506;2023-01-24T03:11:15;0.70;99.90
34873;DHT22;21084;51.098;14.506;2023-01-24T03:13:43;0.80;99.90
34873;DHT22;21084;51.098;14.506;2023-01-24T03:16:30;0.80;99.90
34873;DHT22;21084;51.098;14.506;2023-01-24T03:19:16;0.80;99.90
34873;DHT22;21084;51.098;14.506;2023-01-24T03:22:02;0.80;99.90
34873;DHT22;21084;51.098;14.506;2023-01-24T03:24:48;0.80;99.90
34873;DHT22;21084;51.098;14.506;2023-01-24T03:27:35;0.70;99.90
34873;DHT22;21084;51.098;14.506;2023-01-24T03:30:21;0.70;99.90
34873;DHT22;21084;51.098;14.506;2023-01-24T03:33:09;0.70;99.90
34873;DHT22;21084;51.098;14.506;2023-01-24T03:35:54;0.70;99.90
34873;DHT22;21084;51.098;14.506;2023-01-24T03:38:25;0.70;99.90
34873;DHT22;21084;51.098;14.506;2023-01-24T03:41:11;0.70;99.90
34873;DHT22;21084;51.098;14.506;2023-01-24T03:43:39;0.70;99.90
34873;DHT22;21084;51.098;14.506;2023-01-24T03:46:07;0.70;99.90
34873;DHT22;21084;51.098;14.506;2023-01-24T03:48:37;0.70;99.90
34873;DHT22;21084;51.098;14.506;2023-01-24T03:51:08;0.70;99.90
34873;DHT22;21084;51.098;14.506;2023-01-24T03:53:54;0.70;99.90
34873;DHT22;21084;51.098;14.506;2023-01-24T03:56:23;0.70;99.90
34873;DHT22;21084;51.098;14.506;2023-01-24T03:58:53;0.70;99.90
34873;DHT22;21084;51.098;14.506;2023-01-24T04:01:21;0.70;99.90
34873;DHT22;21084;51.098;14.506;2023-01-24T04:03:51;0.70;99.90
34873;DHT22;21084;51.098;14.506;2023-01-24T04:06:20;0.70;99.90
34873;DHT22;21084;51.098;14.506;2023-01-24T04:08:48;0.70;99.90
34873;DHT22;21084;51.098;14.506;2023-01-24T04:11:17;0.80;99.90
34873;DHT22;21084;51.098;14.506;2023-01-24T04:13:46;0.70;99.90
34873;DHT22;21084;51.098;14.506;2023-01-24T04:16:14;0.70;99.90
34873;DHT22;21084;51.098;14.506;2023-01-24T04:18:43;0.70;99.90
34873;DHT22;21084;51.098;14.506;2023-01-24T04:21:13;0.70;99.90
34873;DHT22;21084;51.098;14.506;2023-01-24T04:23:42;0.70;99.90
34873;DHT22;21084;51.098;14.506;2023-01-24T04:26:11;0.70;99.90
34873;DHT22;21084;51.098;14.506;2023-01-24T04:28:39;0.70;99.90
34873;DHT22;21084;51.098;14.506;2023-01-24T04:31:08;0.70;99.90
34873;DHT22;21084;51.098;14.506;2023-01-24T04:33:37;0.70;99.90
34873;DHT22;21084;51.098;14.506;2023-01-24T04:36:06;0.70;99.90
34873;DHT22;21084;51.098;14.506;2023-01-24T04:38:38;0.70;99.90
34873;DHT22;21084;51.098;14.506;2023-01-24T04:41:06;0.70;99.90
34873;DHT22;21084;51.098;14.506;2023-01-24T04:43:39;0.70;99.90
34873;DHT22;21084;51.098;14.506;2023-01-24T04:46:08;0.70;99.90
34873;DHT22;21084;51.098;14.506;2023-01-24T04:48:37;0.70;99.90
34873;DHT22;21084;51.098;14.506;2023-01-24T04:51:06;0.70;99.90
34873;DHT22;21084;51.098;14.506;2023-01-24T04:53:39;0.70;99.90
34873;DHT22;21084;51.098;14.506;2023-01-24T04:56:08;0.70;99.90
34873;DHT22;21084;51.098;14.506;2023-01-24T04:58:38;0.70;99.90
34873;DHT22;21084;51.098;14.506;2023-01-24T05:01:07;0.70;99.90
34873;DHT22;21084;51.098;14.506;2023-01-24T05:03:35;0.70;99.90
34873;DHT22;21084;51.098;14.506;2023-01-24T05:06:04;0.70;99.90
34873;DHT22;21084;51.098;14.506;2023-01-24T05:08:33;0.70;99.90
34873;DHT22;21084;51.098;14.506;2023-01-24T05:11:03;0.70;99.90
34873;DHT22;21084;51.098;14.506;2023-01-24T05:13:32;0.70;99.90
34873;DHT22;21084;51.098;14.506;2023-01-24T05:16:02;0.70;99.90
34873;DHT22;21084;51.098;14.506;2023-01-24T05:18:31;0.70;99.90
34873;DHT22;21084;51.098;14.506;2023-01-24T05:21:05;0.70;99.90
34873;DHT22;21084;51.098;14.506;2023-01-24T05:23:34;0.70;99.90
34873;DHT22;21084;51.098;14.506;2023-01-24T05:26:04;0.70;99.90
34873;DHT22;21084;51.098;14.506;2023-01-24T05:28:33;0.70;99.90
34873;DHT22;21084;51.098;14.506;2023-01-24T05:31:03;0.70;99.90
34873;DHT22;21084;51.098;14.506;2023-01-24T05:33:31;0.80;99.90
34873;DHT22;21084;51.098;14.506;2023-01-24T05:36:01;0.70;99.90
34873;DHT22;21084;51.098;14.506;2023-01-24T05:38:30;0.70;99.90
34873;DHT22;21084;51.098;14.506;2023-01-24T05:40:59;0.70;99.90
34873;DHT22;21084;51.098;14.506;2023-01-24T05:43:29;0.80;99.90
34873;DHT22;21084;51.098;14.506;2023-01-24T05:45:58;0.80;99.90
34873;DHT22;21084;51.098;14.506;2023-01-24T05:48:27;0.80;99.90
34873;DHT22;21084;51.098;14.506;2023-01-24T05:50:57;0.80;99.90
34873;DHT22;21084;51.098;14.506;2023-01-24T05:53:26;0.80;99.90
34873;DHT22;21084;51.098;14.506;2023-01-24T05:55:56;0.80;99.90
34873;DHT22;21084;51.098;14.506;2023-01-24T05:58:30;0.80;99.90
34873;DHT22;21084;51.098;14.506;2023-01-24T06:01:00;0.80;99.90
34873;DHT22;21084;51.098;14.506;2023-01-24T06:03:28;0.80;99.90
34873;DHT22;21084;51.098;14.506;2023-01-24T06:05:57;0.80;99.90
34873;DHT22;21084;51.098;14.506;2023-01-24T06:08:25;0.90;99.90
34873;DHT22;21084;51.098;14.506;2023-01-24T06:10:54;0.90;99.90
34873;DHT22;21084;51.098;14.506;2023-01-24T06:13:23;0.90;99.90
34873;DHT22;21084;51.098;14.506;2023-01-24T06:16:00;0.80;99.90
34873;DHT22;21084;51.098;14.506;2023-01-24T06:18:29;0.90;99.90
34873;DHT22;21084;51.098;14.506;2023-01-24T06:21:03;0.90;99.90
34873;DHT22;21084;51.098;14.506;2023-01-24T06:23:32;0.90;99.90
34873;DHT22;21084;51.098;14.506;2023-01-24T06:26:01;0.90;99.90
34873;DHT22;21084;51.098;14.506;2023-01-24T06:28:30;0.80;99.90
34873;DHT22;21084;51.098;14.506;2023-01-24T06:31:22;0.80;99.90
34873;DHT22;21084;51.098;14.506;2023-01-24T06:34:08;0.80;99.90
34873;DHT22;21084;51.098;14.506;2023-01-24T06:36:48;0.80;99.90
34873;DHT22;21084;51.098;14.506;2023-01-24T06:39:21;0.80;99.90
34873;DHT22;21084;51.098;14.506;2023-01-24T06:41:50;0.80;99.90
34873;DHT22;21084;51.098;14.506;2023-01-24T06:44:19;0.80;99.90
34873;DHT22;21084;51.098;14.506;2023-01-24T06:46:49;0.80;99.90
34873;DHT22;21084;51.098;14.506;2023-01-24T06:49:18;0.80;99.90
34873;DHT22;21084;51.098;14.506;2023-01-24T06:51:49;0.80;99.90
34873;DHT22;21084;51.098;14.506;2023-01-24T06:54:18;0.80;99.90
34873;DHT22;21084;51.098;14.506;2023-01-24T06:56:47;0.80;99.90
34873;DHT22;21084;51.098;14.506;2023-01-24T06:59:15;0.90;99.90
34873;DHT22;21084;51.098;14.506;2023-01-24T07:01:44;0.90;99.90
34873;DHT22;21084;51.098;14.506;2023-01-24T07:04:13;0.80;99.90
34873;DHT22;21084;51.098;14.506;2023-01-24T07:06:43;0.80;99.90
34873;DHT22;21084;51.098;14.506;2023-01-24T07:09:11;0.80;99.90
34873;DHT22;21084;51.098;14.506;2023-01-24T07:11:40;0.80;99.90
34873;DHT22;21084;51.098;14.506;2023-01-24T07:14:08;0.80;99.90
34873;DHT22;21084;51.098;14.506;2023-01-24T07:16:37;0.80;99.90
34873;DHT22;21084;51.098;14.506;2023-01-24T07:19:07;0.80;99.90
34873;DHT22;21084;51.098;14.506;2023-01-24T07:21:38;0.80;99.90
34873;DHT22;21084;51.098;14.506;2023-01-24T07:24:12;0.80;99.90
34873;DHT22;21084;51.098;14.506;2023-01-24T07:26:42;0.80;99.90
34873;DHT22;21084;51.098;14.506;2023-01-24T07:29:10;0.80;99.90
34873;DHT22;21084;51.098;14.506;2023-01-24T07:31:39;0.90;99.90
34873;DHT22;21084;51.098;14.506;2023-01-24T07:34:08;0.90;99.90
34873;DHT22;21084;51.098;14.506;2023-01-24T07:36:42;0.90;99.90
34873;DHT22;21084;51.098;14.506;2023-01-24T07:39:11;0.90;99.90
34873;DHT22;21084;51.098;14.506;2023-01-24T07:41:40;0.90;99.90
34873;DHT22;21084;51.098;14.506;2023-01-24T07:44:09;0.90;99.90
34873;DHT22;21084;51.098;14.506;2023-01-24T07:46:38;1.00;99.90
34873;DHT22;21084;51.098;14.506;2023-01-24T07:49:07;0.90;99.90
34873;DHT22;21084;51.098;14.506;2023-01-24T07:51:35;1.00;99.90
34873;DHT22;21084;51.098;14.506;2023-01-24T07:54:05;1.00;99.90
34873;DHT22;21084;51.098;14.506;2023-01-24T07:56:36;1.00;99.90
34873;DHT22;21084;51.098;14.506;2023-01-24T07:59:05;1.00;99.90
34873;DHT22;21084;51.098;14.506;2023-01-24T08:01:33;1.10;99.90
34873;DHT22;21084;51.098;14.506;2023-01-24T08:04:02;1.00;99.90
34873;DHT22;21084;51.098;14.506;2023-01-24T08:06:30;1.10;99.90
34873;DHT22;21084;51.098;14.506;2023-01-24T08:08:59;1.00;99.90
34873;DHT22;21084;51.098;14.506;2023-01-24T08:11:29;1.10;99.90
34873;DHT22;21084;51.098;14.506;2023-01-24T08:13:58;1.10;99.90
34873;DHT22;21084;51.098;14.506;2023-01-24T08:16:26;1.10;99.90
34873;DHT22;21084;51.098;14.506;2023-01-24T08:18:55;1.10;99.90
34873;DHT22;21084;51.098;14.506;2023-01-24T08:21:24;1.10;99.90
34873;DHT22;21084;51.098;14.506;2023-01-24T08:23:52;1.10;99.90
34873;DHT22;21084;51.098;14.506;2023-01-24T08:26:21;1.10;99.90
34873;DHT22;21084;51.098;14.506;2023-01-24T08:28:51;1.10;99.90
34873;DHT22;21084;51.098;14.506;2023-01-24T08:31:20;1.10;99.90
34873;DHT22;21084;51.098;14.506;2023-01-24T08:33:49;1.00;99.90
34873;DHT22;21084;51.098;14.506;2023-01-24T08:36:19;1.00;99.90
34873;DHT22;21084;51.098;14.506;2023-01-24T08:38:48;1.10;99.90
34873;DHT22;21084;51.098;14.506;2023-01-24T08:41:17;1.10;99.90
34873;DHT22;21084;51.098;14.506;2023-01-24T08:43:46;1.10;99.90
34873;DHT22;21084;51.098;14.506;2023-01-24T08:46:16;1.10;99.90
34873;DHT22;21084;51.098;14.506;2023-01-24T08:48:45;1.20;99.90
34873;DHT22;21084;51.098;14.506;2023-01-24T08:51:13;1.10;99.90
34873;DHT22;21084;51.098;14.506;2023-01-24T08:53:42;1.10;99.90
34873;DHT22;21084;51.098;14.506;2023-01-24T08:56:11;1.10;99.90
34873;DHT22;21084;51.098;14.506;2023-01-24T08:58:39;1.10;99.90
34873;DHT22;21084;51.098;14.506;2023-01-24T09:01:08;1.10;99.90
34873;DHT22;21084;51.098;14.506;2023-01-24T09:03:39;1.20;99.90
34873;DHT22;21084;51.098;14.506;2023-01-24T09:06:08;1.20;99.90
34873;DHT22;21084;51.098;14.506;2023-01-24T09:08:37;1.30;99.90
34873;DHT22;21084;51.098;14.506;2023-01-24T09:11:05;1.20;99.90
34873;DHT22;21084;51.098;14.506;2023-01-24T09:13:34;1.20;99.90
34873;DHT22;21084;51.098;14.506;2023-01-24T09:16:03;1.20;99.90
34873;DHT22;21084;51.098;14.506;2023-01-24T09:18:31;1.20;99.90
34873;DHT22;21084;51.098;14.506;2023-01-24T09:21:02;1.30;99.90
34873;DHT22;21084;51.098;14.506;2023-01-24T09:23:31;1.30;99.90
34873;DHT22;21084;51.098;14.506;2023-01-24T09:26:00;1.30;99.90
34873;DHT22;21084;51.098;14.506;2023-01-24T09:28:32;1.40;99.90
34873;DHT22;21084;51.098;14.506;2023-01-24T09:31:01;1.30;99.90
34873;DHT22;21084;51.098;14.506;2023-01-24T09:33:30;1.30;99.90
34873;DHT22;21084;51.098;14.506;2023-01-24T09:36:00;1.30;99.90
34873;DHT22;21084;51.098;14.506;2023-01-24T09:38:32;1.30;99.90
34873;DHT22;21084;51.098;14.506;2023-01-24T09:41:08;1.30;99.90
34873;DHT22;21084;51.098;14.506;2023-01-24T09:43:43;1.40;99.90
34873;DHT22;21084;51.098;14.506;2023-01-24T09:46:20;1.40;99.90
34873;DHT22;21084;51.098;14.506;2023-01-24T09:48:57;1.40;99.90
34873;DHT22;21084;51.098;14.506;2023-01-24T09:51:29;1.40;99.90
34873;DHT22;21084;51.098;14.506;2023-01-24T09:54:01;1.50;99.90
34873;DHT22;21084;51.098;14.506;2023-01-24T09:56:34;1.50;99.90
34873;DHT22;21084;51.098;14.506;2023-01-24T09:59:12;1.50;99.90
34873;DHT22;21084;51.098;14.506;2023-01-24T10:01:42;1.50;99.90
34873;DHT22;21084;51.098;14.506;2023-01-24T10:04:16;1.60;99.90
34873;DHT22;21084;51.098;14.506;2023-01-24T10:06:58;1.60;99.90
34873;DHT22;21084;51.098;14.506;2023-01-24T10:09:41;1.70;99.90
34873;DHT22;21084;51.098;14.506;2023-01-24T10:12:20;1.70;99.90
34873;DHT22;21084;51.098;14.506;2023-01-24T10:15:09;1.80;99.90
34873;DHT22;21084;51.098;14.506;2023-01-24T10:18:03;1.80;99.90
34873;DHT22;21084;51.098;14.506;2023-01-24T10:20:56;1.80;99.90
34873;DHT22;21084;51.098;14.506;2023-01-24T10:23:31;1.80;99.90
34873;DHT22;21084;51.098;14.506;2023-01-24T10:26:07;1.70;99.90
34873;DHT22;21084;51.098;14.506;2023-01-24T10:28:43;1.70;99.90
34873;DHT22;21084;51.098;14.506;2023-01-24T10:31:14;1.70;99.90
34873;DHT22;21084;51.098;14.506;2023-01-24T10:33:47;1.70;99.90
34873;DHT22;21084;51.098;14.506;2023-01-24T10:36:22;1.60;99.90
34873;DHT22;21084;51.098;14.506;2023-01-24T10:38:53;1.60;99.90
34873;DHT22;21084;51.098;14.506;2023-01-24T10:41:24;1.60;99.90
34873;DHT22;21084;51.098;14.506;2023-01-24T10:43:55;1.60;99.90
34873;DHT22;21084;51.098;14.506;2023-01-24T10:46:47;1.60;99.90
34873;DHT22;21084;51.098;14.506;2023-01-24T10:49:22;1.60;99.90
34873;DHT22;21084;51.098;14.506;2023-01-24T10:52:10;1.60;99.90
34873;DHT22;21084;51.098;14.506;2023-01-24T10:54:48;1.70;99.90
34873;DHT22;21084;51.098;14.506;2023-01-24T10:57:37;1.70;99.90
34873;DHT22;21084;51.098;14.506;2023-01-24T11:00:18;1.70;99.90
34873;DHT22;21084;51.098;14.506;2023-01-24T11:02:51;1.70;99.90
34873;DHT22;21084;51.098;14.506;2023-01-24T11:05:21;1.70;99.90
34873;DHT22;21084;51.098;14.506;2023-01-24T11:07:52;1.60;99.90
34873;DHT22;21084;51.098;14.506;2023-01-24T11:10:23;1.60;99.90
34873;DHT22;21084;51.098;14.506;2023-01-24T11:12:55;1.60;99.90
34873;DHT22;21084;51.098;14.506;2023-01-24T11:15:27;1.70;99.90
34873;DHT22;21084;51.098;14.506;2023-01-24T11:17:58;1.70;99.90
34873;DHT22;21084;51.098;14.506;2023-01-24T11:20:30;1.70;99.90
34873;DHT22;21084;51.098;14.506;2023-01-24T11:23:05;1.70;99.90
34873;DHT22;21084;51.098;14.506;2023-01-24T11:25:34;1.70;99.90
34873;DHT22;21084;51.098;14.506;2023-01-24T11:28:04;1.70;99.90
34873;DHT22;21084;51.098;14.506;2023-01-24T11:30:37;1.70;99.90
34873;DHT22;21084;51.098;14.506;2023-01-24T11:33:23;1.70;99.90
34873;DHT22;21084;51.098;14.506;2023-01-24T11:35:56;1.60;99.90
34873;DHT22;21084;51.098;14.506;2023-01-24T11:38:32;1.60;99.90
34873;DHT22;21084;51.098;14.506;2023-01-24T11:41:09;1.70;99.90
34873;DHT22;21084;51.098;14.506;2023-01-24T11:46:58;1.70;99.90
34873;DHT22;21084;51.098;14.506;2023-01-24T11:52:40;1.70;99.90
34873;DHT22;21084;51.098;14.506;2023-01-24T11:55:15;1.70;99.90
34873;DHT22;21084;51.098;14.506;2023-01-24T11:57:51;1.70;99.90
34873;DHT22;21084;51.098;14.506;2023-01-24T12:00:30;1.60;99.90
34873;DHT22;21084;51.098;14.506;2023-01-24T12:03:27;1.60;99.90
34873;DHT22;21084;51.098;14.506;2023-01-24T12:06:19;1.60;99.90
34873;DHT22;21084;51.098;14.506;2023-01-24T12:09:09;1.60;99.90
34873;DHT22;21084;51.098;14.506;2023-01-24T12:11:44;1.70;99.90
34873;DHT22;21084;51.098;14.506;2023-01-24T12:14:29;1.70;99.90
34873;DHT22;21084;51.098;14.506;2023-01-24T12:17:05;1.70;99.90
34873;DHT22;21084;51.098;14.506;2023-01-24T12:20:02;1.70;99.90
34873;DHT22;21084;51.098;14.506;2023-01-24T12:22:44;1.70;99.90
34873;DHT22;21084;51.098;14.506;2023-01-24T12:25:20;1.80;99.90
34873;DHT22;21084;51.098;14.506;2023-01-24T12:27:53;1.80;99.90
34873;DHT22;21084;51.098;14.506;2023-01-24T12:30:30;1.80;99.90
34873;DHT22;21084;51.098;14.506;2023-01-24T12:33:03;1.80;99.90
34873;DHT22;21084;51.098;14.506;2023-01-24T12:35:41;1.80;99.90
34873;DHT22;21084;51.098;14.506;2023-01-24T12:38:17;1.80;99.90
34873;DHT22;21084;51.098;14.506;2023-01-24T12:40:52;1.80;99.90
34873;DHT22;21084;51.098;14.506;2023-01-24T12:43:29;1.80;99.90
34873;DHT22;21084;51.098;14.506;2023-01-24T12:46:06;1.80;99.90
34873;DHT22;21084;51.098;14.506;2023-01-24T12:48:40;1.80;99.90
34873;DHT22;21084;51.098;14.506;2023-01-24T12:51:20;1.80;99.90
34873;DHT22;21084;51.098;14.506;2023-01-24T12:53:58;1.80;99.90
34873;DHT22;21084;51.098;14.506;2023-01-24T12:56:33;1.80;99.90
34873;DHT22;21084;51.098;14.506;2023-01-24T12:59:08;1.80;99.90
34873;DHT22;21084;51.098;14.506;2023-01-24T13:01:57;1.90;99.90
34873;DHT22;21084;51.098;14.506;2023-01-24T13:04:39;1.80;99.90
34873;DHT22;21084;51.098;14.506;2023-01-24T13:07:19;1.70;99.90
34873;DHT22;21084;51.098;14.506;2023-01-24T13:09:55;1.70;99.90
34873;DHT22;21084;51.098;14.506;2023-01-24T13:12:27;1.70;99.90
34873;DHT22;21084;51.098;14.506;2023-01-24T13:15:02;1.70;99.90
34873;DHT22;21084;51.098;14.506;2023-01-24T13:20:59;1.70;99.90
34873;DHT22;21084;51.098;14.506;2023-01-24T13:23:43;1.70;99.90
34873;DHT22;21084;51.098;14.506;2023-01-24T13:26:38;1.80;99.90
34873;DHT22;21084;51.098;14.506;2023-01-24T13:32:09;1.70;99.90
34873;DHT22;21084;51.098;14.506;2023-01-24T13:34:42;1.60;99.90
34873;DHT22;21084;51.098;14.506;2023-01-24T13:37:17;1.70;99.90
34873;DHT22;21084;51.098;14.506;2023-01-24T13:39:58;1.70;99.90
34873;DHT22;21084;51.098;14.506;2023-01-24T13:42:33;1.70;99.90
34873;DHT22;21084;51.098;14.506;2023-01-24T13:45:40;1.70;99.90
34873;DHT22;21084;51.098;14.506;2023-01-24T13:48:43;1.60;99.90
34873;DHT22;21084;51.098;14.506;2023-01-24T13:51:46;1.60;99.90
34873;DHT22;21084;51.098;14.506;2023-01-24T13:54:37;1.70;99.90
34873;DHT22;21084;51.098;14.506;2023-01-24T13:57:23;1.60;99.90
34873;DHT22;21084;51.098;14.506;2023-01-24T14:00:17;1.60;99.90
34873;DHT22;21084;51.098;14.506;2023-01-24T14:03:15;1.60;99.90
34873;DHT22;21084;51.098;14.506;2023-01-24T14:05:48;1.60;99.90
34873;DHT22;21084;51.098;14.506;2023-01-24T14:08:40;1.60;99.90
34873;DHT22;21084;51.098;14.506;2023-01-24T14:14:31;1.50;99.90
34873;DHT22;21084;51.098;14.506;2023-01-24T14:17:03;1.50;99.90
34873;DHT22;21084;51.098;14.506;2023-01-24T14:19:36;1.50;99.90
34873;DHT22;21084;51.098;14.506;2023-01-24T14:22:16;1.50;99.90
34873;DHT22;21084;51.098;14.506;2023-01-24T14:24:56;1.50;99.90
34873;DHT22;21084;51.098;14.506;2023-01-24T14:27:36;1.50;99.90
34873;DHT22;21084;51.098;14.506;2023-01-24T14:30:30;1.50;99.90
34873;DHT22;21084;51.098;14.506;2023-01-24T14:33:04;1.50;99.90
34873;DHT22;21084;51.098;14.506;2023-01-24T14:35:51;1.50;99.90
34873;DHT22;21084;51.098;14.506;2023-01-24T14:38:21;1.50;99.90
34873;DHT22;21084;51.098;14.506;2023-01-24T14:40:51;1.50;99.90
34873;DHT22;21084;51.098;14.506;2023-01-24T14:43:26;1.50;99.90
34873;DHT22;21084;51.098;14.506;2023-01-24T14:46:10;1.40;99.90
34873;DHT22;21084;51.098;14.506;2023-01-24T14:48:39;1.40;99.90
34873;DHT22;21084;51.098;14.506;2023-01-24T14:51:15;1.40;99.90
34873;DHT22;21084;51.098;14.506;2023-01-24T14:53:48;1.40;99.90
34873;DHT22;21084;51.098;14.506;2023-01-24T14:56:17;1.40;99.90
34873;DHT22;21084;51.098;14.506;2023-01-24T14:58:46;1.40;99.90
34873;DHT22;21084;51.098;14.506;2023-01-24T15:01:35;1.40;99.90
34873;DHT22;21084;51.098;14.506;2023-01-24T15:04:04;1.30;99.90
34873;DHT22;21084;51.098;14.506;2023-01-24T15:06:33;1.30;99.90
34873;DHT22;21084;51.098;14.506;2023-01-24T15:09:03;1.30;99.90
34873;DHT22;21084;51.098;14.506;2023-01-24T15:11:33;1.40;99.90
34873;DHT22;21084;51.098;14.506;2023-01-24T15:14:05;1.40;99.90
34873;DHT22;21084;51.098;14.506;2023-01-24T15:16:37;1.30;99.90
34873;DHT22;21084;51.098;14.506;2023-01-24T15:19:14;1.30;99.90
34873;DHT22;21084;51.098;14.506;2023-01-24T15:21:46;1.30;99.90
34873;DHT22;21084;51.098;14.506;2023-01-24T15:24:19;1.30;99.90
34873;DHT22;21084;51.098;14.506;2023-01-24T15:26:48;1.20;99.90
34873;DHT22;21084;51.098;14.506;2023-01-24T15:29:40;1.20;99.90
34873;DHT22;21084;51.098;14.506;2023-01-24T15:32:28;1.20;99.90
34873;DHT22;21084;51.098;14.506;2023-01-24T15:35:23;1.20;99.90
34873;DHT22;21084;51.098;14.506;2023-01-24T15:38:20;1.20;99.90
34873;DHT22;21084;51.098;14.506;2023-01-24T15:40:59;1.20;99.90
34873;DHT22;21084;51.098;14.506;2023-01-24T15:43:31;1.20;99.90
34873;DHT22;21084;51.098;14.506;2023-01-24T15:46:22;1.20;99.90
34873;DHT22;21084;51.098;14.506;2023-01-24T15:49:29;1.20;99.90
34873;DHT22;21084;51.098;14.506;2023-01-24T15:52:18;1.20;99.90
34873;DHT22;21084;51.098;14.506;2023-01-24T15:54:53;1.20;99.90
34873;DHT22;21084;51.098;14.506;2023-01-24T15:57:27;1.20;99.90
34873;DHT22;21084;51.098;14.506;2023-01-24T16:00:00;1.20;99.90
34873;DHT22;21084;51.098;14.506;2023-01-24T16:02:30;1.20;99.90
34873;DHT22;21084;51.098;14.506;2023-01-24T16:05:00;1.20;99.90
34873;DHT22;21084;51.098;14.506;2023-01-24T16:07:29;1.20;99.90
34873;DHT22;21084;51.098;14.506;2023-01-24T16:09:57;1.20;99.90
34873;DHT22;21084;51.098;14.506;2023-01-24T16:12:51;1.20;99.90
34873;DHT22;21084;51.098;14.506;2023-01-24T16:15:20;1.20;99.90
34873;DHT22;21084;51.098;14.506;2023-01-24T16:17:50;1.20;99.90
34873;DHT22;21084;51.098;14.506;2023-01-24T16:20:22;1.20;99.90
34873;DHT22;21084;51.098;14.506;2023-01-24T16:22:54;1.20;99.90
34873;DHT22;21084;51.098;14.506;2023-01-24T16:25:24;1.20;99.90
34873;DHT22;21084;51.098;14.506;2023-01-24T16:27:53;1.20;99.90